createdAt,value
2023-02-05T00:00:24.178Z,0.40
2023-02-05T00:02:54.123Z,0.40
2023-02-05T00:05:22.608Z,0.40
2023-02-05T00:07:51.026Z,0.47
2023-02-05T00:10:19.682Z,0.33
2023-02-05T00:12:48.181Z,0.43
2023-02-05T00:15:16.668Z,0.30
2023-02-05T00:17:45.075Z,0.33
2023-02-05T00:20:15.146Z,0.53
2023-02-05T00:22:43.554Z,0.40
2023-02-05T00:25:12.075Z,0.47
2023-02-05T00:27:40.692Z,0.60
2023-02-05T00:30:10.780Z,0.30
2023-02-05T00:32:39.225Z,0.40
2023-02-05T00:35:07.867Z,1.10
2023-02-05T00:37:37.867Z,0.60
2023-02-05T00:40:07.212Z,0.70
2023-02-05T00:42:35.802Z,0.80
2023-02-05T00:45:04.390Z,0.50
2023-02-05T00:47:32.920Z,0.50
2023-02-05T00:50:01.497Z,0.37
2023-02-05T00:52:31.117Z,0.40
2023-02-05T00:55:01.069Z,0.40
2023-02-05T00:57:29.545Z,0.40
2023-02-05T00:59:57.952Z,0.40
2023-02-05T01:02:26.793Z,0.30
2023-02-05T01:04:56.311Z,0.30
2023-02-05T01:07:24.799Z,0.40
2023-02-05T01:09:53.302Z,0.60
2023-02-05T01:12:23.301Z,0.60
2023-02-05T01:14:51.846Z,0.50
2023-02-05T01:17:20.294Z,0.50
2023-02-05T01:19:48.889Z,0.60
2023-02-05T01:22:17.366Z,0.40
2023-02-05T01:24:46.038Z,0.43
2023-02-05T01:27:14.663Z,0.60
2023-02-05T01:29:44.583Z,0.40
2023-02-05T01:32:13.110Z,0.43
2023-02-05T01:34:41.577Z,0.30
2023-02-05T01:37:10.141Z,0.50
2023-02-05T01:39:38.832Z,0.40
2023-02-05T01:42:18.697Z,0.50
2023-02-05T01:45:36.641Z,0.47
2023-02-05T01:48:06.272Z,0.50
2023-02-05T01:50:40.849Z,0.60
2023-02-05T01:53:12.272Z,0.33
2023-02-05T01:55:45.674Z,0.57
2023-02-05T01:58:15.332Z,0.70
2023-02-05T02:00:45.278Z,0.80
2023-02-05T02:03:15.998Z,0.83
2023-02-05T02:05:44.834Z,1.00
2023-02-05T02:08:14.964Z,0.80
2023-02-05T02:10:45.346Z,1.00
2023-02-05T02:13:14.476Z,1.10
2023-02-05T02:15:44.902Z,0.90
2023-02-05T02:18:29.330Z,0.60
2023-02-05T02:21:39.796Z,0.50
2023-02-05T02:24:44.589Z,0.50
2023-02-05T02:27:28.792Z,0.50
2023-02-05T02:29:59.956Z,0.50
2023-02-05T02:32:37.775Z,0.40
2023-02-05T02:35:11.612Z,0.47
2023-02-05T02:37:48.366Z,0.70
2023-02-05T02:40:21.930Z,0.60
2023-02-05T02:42:59.619Z,0.50
2023-02-05T02:45:32.531Z,0.33
2023-02-05T02:48:02.169Z,0.53
2023-02-05T02:50:34.978Z,0.40
2023-02-05T02:53:05.987Z,0.50
2023-02-05T02:55:39.011Z,0.40
2023-02-05T02:58:11.807Z,0.40
2023-02-05T03:00:43.045Z,0.40
2023-02-05T03:03:16.369Z,0.30
2023-02-05T03:05:47.124Z,0.30
2023-02-05T03:08:22.084Z,0.50
2023-02-05T03:10:56.827Z,0.40
2023-02-05T03:13:27.097Z,0.40
2023-02-05T03:15:59.759Z,0.50
2023-02-05T03:18:28.359Z,0.40
2023-02-05T03:20:59.418Z,0.30
2023-02-05T03:23:28.942Z,0.40
2023-02-05T03:25:57.546Z,0.33
2023-02-05T03:28:37.591Z,0.60
2023-02-05T03:31:15.277Z,0.50
2023-02-05T03:33:52.522Z,0.47
2023-02-05T03:36:31.638Z,0.40
2023-02-05T03:39:13.539Z,0.40
2023-02-05T03:41:57.068Z,0.50
2023-02-05T03:44:59.410Z,0.50
2023-02-05T03:47:39.370Z,0.40
2023-02-05T03:50:14.475Z,0.53
2023-02-05T03:52:49.498Z,0.40
2023-02-05T03:55:21.509Z,0.40
2023-02-05T03:57:57.811Z,0.40
2023-02-05T04:00:29.059Z,0.43
2023-02-05T04:02:58.194Z,0.50
2023-02-05T04:05:31.545Z,0.47
2023-02-05T04:08:02.681Z,0.40
2023-02-05T04:10:36.758Z,0.40
2023-02-05T04:13:05.509Z,0.40
2023-02-05T04:15:37.059Z,0.50
2023-02-05T04:18:09.604Z,0.40
2023-02-05T04:20:39.122Z,0.30
2023-02-05T04:23:09.457Z,0.30
2023-02-05T04:25:38.688Z,0.50
2023-02-05T04:28:10.825Z,0.40
2023-02-05T04:30:41.288Z,0.50
2023-02-05T04:33:11.901Z,0.50
2023-02-05T04:35:40.816Z,0.40
2023-02-05T04:38:09.665Z,0.60
2023-02-05T04:40:38.440Z,0.40
2023-02-05T04:43:06.940Z,0.40
2023-02-05T04:45:36.979Z,0.40
2023-02-05T04:48:07.592Z,0.30
2023-02-05T04:50:36.318Z,0.40
2023-02-05T04:53:04.801Z,0.50
2023-02-05T04:55:33.980Z,0.40
2023-02-05T04:58:03.061Z,0.47
2023-02-05T05:00:31.626Z,0.40
2023-02-05T05:03:00.192Z,0.40
2023-02-05T05:05:30.097Z,0.50
2023-02-05T05:08:00.322Z,0.40
2023-02-05T05:10:28.904Z,0.47
2023-02-05T05:12:57.368Z,0.30
2023-02-05T05:15:25.843Z,0.40
2023-02-05T05:17:54.273Z,0.60
2023-02-05T05:20:22.680Z,0.40
2023-02-05T05:22:52.531Z,0.57
2023-02-05T05:25:21.051Z,0.43
2023-02-05T05:27:50.838Z,0.50
2023-02-05T05:30:19.706Z,0.40
2023-02-05T05:32:48.113Z,0.57
2023-02-05T05:35:16.579Z,0.50
2023-02-05T05:37:45.111Z,0.30
2023-02-05T05:40:32.581Z,0.50
2023-02-05T05:43:18.728Z,0.30
2023-02-05T05:45:47.294Z,0.50
2023-02-05T05:48:15.696Z,0.40
2023-02-05T05:50:44.167Z,0.37
2023-02-05T05:53:12.735Z,0.40
2023-02-05T05:55:43.404Z,0.47
2023-02-05T05:58:12.036Z,0.33
2023-02-05T06:00:41.706Z,0.60
2023-02-05T06:03:12.451Z,0.50
2023-02-05T06:05:41.077Z,0.40
2023-02-05T06:08:09.509Z,0.60
2023-02-05T06:10:38.065Z,0.50
2023-02-05T06:13:09.018Z,0.50
2023-02-05T06:15:37.770Z,0.50
2023-02-05T06:18:06.625Z,0.33
2023-02-05T06:20:35.422Z,0.40
2023-02-05T06:23:03.823Z,0.43
2023-02-05T06:25:32.461Z,0.40
2023-02-05T06:28:01.121Z,1.30
2023-02-05T06:30:31.130Z,0.50
2023-02-05T06:32:59.669Z,0.40
2023-02-05T06:35:28.170Z,0.30
2023-02-05T06:38:05.202Z,0.30
2023-02-05T06:40:33.673Z,0.50
2023-02-05T06:43:02.113Z,0.50
2023-02-05T06:45:32.595Z,0.40
2023-02-05T06:48:03.764Z,0.40
2023-02-05T06:50:32.434Z,0.30
2023-02-05T06:53:00.848Z,0.50
2023-02-05T06:55:29.422Z,0.40
2023-02-05T06:58:00.542Z,0.73
2023-02-05T07:00:32.472Z,0.93
2023-02-05T07:03:02.919Z,0.50
2023-02-05T07:05:31.709Z,0.40
2023-02-05T07:08:01.460Z,0.40
2023-02-05T07:10:30.082Z,0.40
2023-02-05T07:12:58.518Z,0.50
2023-02-05T07:15:26.981Z,0.50
2023-02-05T07:17:55.449Z,0.40
2023-02-05T07:20:25.300Z,0.53
2023-02-05T07:22:53.714Z,0.70
2023-02-05T07:25:24.039Z,0.60
2023-02-05T07:27:52.658Z,0.60
2023-02-05T07:30:21.226Z,0.40
2023-02-05T07:32:49.792Z,0.53
2023-02-05T07:35:18.439Z,0.77
2023-02-05T07:37:48.438Z,0.70
2023-02-05T07:40:17.141Z,0.50
2023-02-05T07:42:45.592Z,0.57
2023-02-05T07:45:14.208Z,0.50
2023-02-05T07:47:42.969Z,0.60
2023-02-05T07:50:11.759Z,0.40
2023-02-05T07:52:40.249Z,0.50
2023-02-05T07:55:10.377Z,0.50
2023-02-05T07:57:38.922Z,0.43
2023-02-05T08:00:09.845Z,0.53
2023-02-05T08:02:41.139Z,0.40
2023-02-05T08:05:10.087Z,0.60
2023-02-05T08:07:39.473Z,0.60
2023-02-05T08:10:11.038Z,0.63
2023-02-05T08:12:39.590Z,0.67
2023-02-05T08:15:09.057Z,0.77
2023-02-05T08:17:37.693Z,1.30
2023-02-05T08:20:08.281Z,0.60
2023-02-05T08:22:38.410Z,0.90
2023-02-05T08:25:09.134Z,0.90
2023-02-05T08:27:40.299Z,0.70
2023-02-05T08:30:13.414Z,0.40
2023-02-05T08:32:41.994Z,0.60
2023-02-05T08:35:10.641Z,0.30
2023-02-05T08:37:40.070Z,0.40
2023-02-05T08:40:09.637Z,0.30
2023-02-05T08:42:39.511Z,0.27
2023-02-05T08:45:09.324Z,0.40
2023-02-05T08:47:38.179Z,0.30
2023-02-05T08:50:07.480Z,0.27
2023-02-05T08:52:35.925Z,0.23
2023-02-05T08:55:04.679Z,0.30
2023-02-05T08:57:33.350Z,0.20
2023-02-05T09:00:03.406Z,0.27
2023-02-05T09:02:32.332Z,0.30
2023-02-05T09:05:08.297Z,0.40
2023-02-05T09:07:37.465Z,0.40
2023-02-05T09:10:07.181Z,0.40
2023-02-05T09:12:35.693Z,0.40
2023-02-05T09:15:05.874Z,0.30
2023-02-05T09:17:34.587Z,0.40
2023-02-05T09:20:03.108Z,1.10
2023-02-05T09:22:31.633Z,0.40
2023-02-05T09:24:59.998Z,0.40
2023-02-05T09:27:28.782Z,0.37
2023-02-05T09:29:57.286Z,0.60
2023-02-05T09:32:27.209Z,0.30
2023-02-05T09:34:55.645Z,0.33
2023-02-05T09:37:24.161Z,0.50
2023-02-05T09:40:19.458Z,0.40
2023-02-05T09:42:48.180Z,0.40
2023-02-05T09:45:37.886Z,0.30
2023-02-05T09:48:32.761Z,0.50
2023-02-05T09:51:02.438Z,0.40
2023-02-05T09:53:36.801Z,0.30
2023-02-05T09:56:08.341Z,0.40
2023-02-05T09:58:43.295Z,0.37
2023-02-05T10:01:17.792Z,0.20
2023-02-05T10:03:50.581Z,0.30
2023-02-05T10:06:39.041Z,0.30
2023-02-05T10:09:24.932Z,0.20
2023-02-05T10:12:01.578Z,0.20
2023-02-05T10:14:39.533Z,0.10
2023-02-05T10:17:24.854Z,0.60
2023-02-05T10:20:08.137Z,0.20
2023-02-05T10:22:46.915Z,0.20
2023-02-05T10:25:36.124Z,0.20
2023-02-05T10:28:16.714Z,0.50
2023-02-05T10:30:52.787Z,0.43
2023-02-05T10:33:35.045Z,0.30
2023-02-05T10:36:08.034Z,0.20
2023-02-05T10:38:41.253Z,0.30
2023-02-05T10:41:16.621Z,0.20
2023-02-05T10:43:50.676Z,0.40
2023-02-05T10:46:19.621Z,0.30
2023-02-05T10:48:50.875Z,0.20
2023-02-05T10:51:26.182Z,0.10
2023-02-05T10:53:54.718Z,0.20
2023-02-05T10:56:23.145Z,0.20
2023-02-05T10:58:55.567Z,0.10
2023-02-05T11:01:33.679Z,0.10
2023-02-05T11:04:09.474Z,0.20
2023-02-05T11:06:44.303Z,0.20
2023-02-05T11:09:36.312Z,0.10
2023-02-05T11:12:07.238Z,0.30
2023-02-05T11:14:38.796Z,0.20
2023-02-05T11:17:22.177Z,0.10
2023-02-05T11:19:54.635Z,0.20
2023-02-05T11:22:30.491Z,0.27
2023-02-05T11:25:17.571Z,0.10
2023-02-05T11:27:54.035Z,0.20
2023-02-05T11:33:27.021Z,0.20
2023-02-05T11:35:58.158Z,0.10
2023-02-05T11:38:34.160Z,0.27
2023-02-05T11:41:05.858Z,0.10
2023-02-05T11:43:36.640Z,0.20
2023-02-05T11:46:09.267Z,0.10
2023-02-05T11:48:41.560Z,0.10
2023-02-05T11:51:12.818Z,0.10
2023-02-05T11:53:51.768Z,0.10
2023-02-05T11:56:25.372Z,0.10
2023-02-05T11:59:01.489Z,0.00
2023-02-05T12:01:34.056Z,0.10
2023-02-05T12:04:04.558Z,0.10
2023-02-05T12:06:39.605Z,0.10
2023-02-05T12:09:13.277Z,0.10
2023-02-05T12:12:06.805Z,0.10
2023-02-05T12:14:42.687Z,0.10
2023-02-05T12:17:33.393Z,0.13
2023-02-05T12:20:13.005Z,0.10
2023-02-05T12:23:21.243Z,0.10
2023-02-05T12:26:04.110Z,0.10
2023-02-05T12:28:45.469Z,0.10
2023-02-05T12:31:25.417Z,0.10
2023-02-05T12:34:06.769Z,0.10
2023-02-05T12:36:50.064Z,0.10
2023-02-05T12:39:33.297Z,0.17
2023-02-05T12:42:15.240Z,0.20
2023-02-05T12:44:59.509Z,0.30
2023-02-05T12:47:46.872Z,0.10
2023-02-05T12:50:38.108Z,0.10
2023-02-05T12:53:23.387Z,0.13
2023-02-05T12:56:21.386Z,0.10
2023-02-05T12:58:57.442Z,0.20
2023-02-05T13:01:42.269Z,0.10
2023-02-05T13:04:22.551Z,0.07
2023-02-05T13:06:56.776Z,0.10
2023-02-05T13:09:31.394Z,0.10
2023-02-05T13:12:06.383Z,0.10
2023-02-05T13:14:42.707Z,0.07
2023-02-05T13:17:16.964Z,0.10
2023-02-05T13:19:49.813Z,0.07
2023-02-05T13:22:40.182Z,0.10
2023-02-05T13:25:38.998Z,0.10
2023-02-05T13:28:41.472Z,0.20
2023-02-05T13:31:22.402Z,0.07
2023-02-05T13:33:51.739Z,0.03
2023-02-05T13:36:47.229Z,0.10
2023-02-05T13:39:34.491Z,0.10
2023-02-05T13:42:23.823Z,0.10
2023-02-05T13:45:15.367Z,0.10
2023-02-05T13:47:59.593Z,0.10
2023-02-05T13:50:53.906Z,0.10
2023-02-05T13:53:37.863Z,0.10
2023-02-05T13:56:43.761Z,0.10
2023-02-05T13:59:17.137Z,0.20
2023-02-05T14:01:53.345Z,0.10
2023-02-05T14:04:28.096Z,0.30
2023-02-05T14:07:03.025Z,0.10
2023-02-05T14:09:36.791Z,0.20
2023-02-05T14:12:08.981Z,0.20
2023-02-05T14:14:38.321Z,0.13
2023-02-05T14:17:39.631Z,0.20
2023-02-05T14:20:32.678Z,0.30
2023-02-05T14:23:02.898Z,0.17
2023-02-05T14:26:02.640Z,0.10
2023-02-05T14:28:51.404Z,0.20
2023-02-05T14:31:49.355Z,0.20
2023-02-05T14:34:47.900Z,0.20
2023-02-05T14:37:33.637Z,0.13
2023-02-05T14:40:14.377Z,0.10
2023-02-05T14:42:44.461Z,0.20
2023-02-05T14:45:17.354Z,0.10
2023-02-05T14:47:46.377Z,0.20
2023-02-05T14:50:22.197Z,0.20
2023-02-05T14:52:55.177Z,0.20
2023-02-05T14:55:30.117Z,0.50
2023-02-05T14:58:03.214Z,0.20
2023-02-05T15:00:35.467Z,0.30
2023-02-05T15:03:28.367Z,0.27
2023-02-05T15:06:01.118Z,0.27
2023-02-05T15:08:45.043Z,0.20
2023-02-05T15:11:19.613Z,0.20
2023-02-05T15:14:21.139Z,0.30
2023-02-05T15:17:11.001Z,0.30
2023-02-05T15:19:43.516Z,0.63
2023-02-05T15:22:22.773Z,0.40
2023-02-05T15:24:53.850Z,0.23
2023-02-05T15:27:28.960Z,0.30
2023-02-05T15:29:57.621Z,0.40
2023-02-05T15:32:29.817Z,0.30
2023-02-05T15:35:04.136Z,0.40
2023-02-05T15:37:36.480Z,0.40
2023-02-05T15:40:13.952Z,0.60
2023-02-05T15:42:45.217Z,0.30
2023-02-05T15:45:24.035Z,0.27
2023-02-05T15:48:00.871Z,0.40
2023-02-05T15:50:30.653Z,0.20
2023-02-05T15:52:59.900Z,0.30
2023-02-05T15:55:32.956Z,0.50
2023-02-05T15:58:06.560Z,0.30
2023-02-05T16:00:39.166Z,0.20
2023-02-05T16:03:07.996Z,0.30
2023-02-05T16:05:37.998Z,0.30
2023-02-05T16:08:18.938Z,0.20
2023-02-05T16:10:57.927Z,0.27
2023-02-05T16:13:27.741Z,0.33
2023-02-05T16:16:01.781Z,0.63
2023-02-05T16:18:38.594Z,0.30
2023-02-05T16:21:14.455Z,0.27
2023-02-05T16:23:47.448Z,0.30
2023-02-05T16:26:22.605Z,0.23
2023-02-05T16:28:56.967Z,0.30
2023-02-05T16:31:27.709Z,0.30
2023-02-05T16:34:00.384Z,0.20
2023-02-05T16:36:32.058Z,0.20
2023-02-05T16:39:04.020Z,0.60
2023-02-05T16:41:43.932Z,0.40
2023-02-05T16:44:28.969Z,0.50
2023-02-05T16:47:12.656Z,0.50
2023-02-05T16:49:41.500Z,0.20
2023-02-05T16:52:32.032Z,0.40
2023-02-05T16:55:06.145Z,0.30
2023-02-05T16:57:39.157Z,0.30
2023-02-05T17:00:20.936Z,0.30
2023-02-05T17:02:55.655Z,0.50
2023-02-05T17:05:26.893Z,0.20
2023-02-05T17:07:57.277Z,0.60
2023-02-05T17:10:26.378Z,0.30
2023-02-05T17:12:58.157Z,0.30
2023-02-05T17:15:44.315Z,0.40
2023-02-05T17:18:25.496Z,0.40
2023-02-05T17:21:24.639Z,0.30
2023-02-05T17:23:53.986Z,0.30
2023-02-05T17:26:22.765Z,0.30
2023-02-05T17:28:58.303Z,0.40
2023-02-05T17:31:29.451Z,0.30
2023-02-05T17:34:00.042Z,0.30
2023-02-05T17:36:29.091Z,0.40
2023-02-05T17:38:57.638Z,0.30
2023-02-05T17:41:45.697Z,0.40
2023-02-05T17:44:17.966Z,0.30
2023-02-05T17:46:47.851Z,0.30
2023-02-05T17:49:16.337Z,0.20
2023-02-05T17:51:44.874Z,0.40
2023-02-05T17:54:15.608Z,0.30
2023-02-05T17:56:44.833Z,0.40
2023-02-05T17:59:15.033Z,0.50
2023-02-05T18:01:46.029Z,0.60
2023-02-05T18:04:14.713Z,0.30
2023-02-05T18:06:44.745Z,0.30
2023-02-05T18:09:14.257Z,0.30
2023-02-05T18:11:43.306Z,0.27
2023-02-05T18:14:12.736Z,0.30
2023-02-05T18:16:41.861Z,0.37
2023-02-05T18:19:11.895Z,0.20
2023-02-05T18:21:40.385Z,0.23
2023-02-05T18:24:09.103Z,0.37
2023-02-05T18:26:38.340Z,0.20
2023-02-05T18:29:06.858Z,0.27
2023-02-05T18:31:35.567Z,0.30
2023-02-05T18:34:04.209Z,0.20
2023-02-05T18:36:34.056Z,0.20
2023-02-05T18:39:02.604Z,0.20
2023-02-05T18:41:31.812Z,0.30
2023-02-05T18:44:00.587Z,0.20
2023-02-05T18:46:29.392Z,0.30
2023-02-05T18:48:57.868Z,0.33
2023-02-05T18:51:26.622Z,0.20
2023-02-05T18:53:56.610Z,0.33
2023-02-05T18:56:27.079Z,0.20
2023-02-05T18:58:59.555Z,0.23
2023-02-05T19:01:29.250Z,0.30
2023-02-05T19:04:01.642Z,0.30
2023-02-05T19:06:32.892Z,0.40
2023-02-05T19:09:05.008Z,0.30
2023-02-05T19:11:34.162Z,0.30
2023-02-05T19:14:04.436Z,0.27
2023-02-05T19:16:34.750Z,0.30
2023-02-05T19:19:05.325Z,0.33
2023-02-05T19:21:34.816Z,0.40
2023-02-05T19:24:07.771Z,0.30
2023-02-05T19:26:38.406Z,0.20
2023-02-05T19:29:09.927Z,0.37
2023-02-05T19:31:39.105Z,0.20
2023-02-05T19:34:08.000Z,0.30
2023-02-05T19:36:40.454Z,0.23
2023-02-05T19:39:14.696Z,0.30
2023-02-05T19:41:45.872Z,0.30
2023-02-05T19:44:14.926Z,0.30
2023-02-05T19:46:45.346Z,0.30
2023-02-05T19:49:16.045Z,0.30
2023-02-05T19:51:47.010Z,0.30
2023-02-05T19:54:18.953Z,0.27
2023-02-05T19:56:48.948Z,0.40
2023-02-05T19:59:17.617Z,0.40
2023-02-05T20:01:46.632Z,0.30
2023-02-05T20:04:17.752Z,0.40
2023-02-05T20:06:47.423Z,0.30
2023-02-05T20:09:18.469Z,0.40
2023-02-05T20:11:48.870Z,0.20
2023-02-05T20:14:18.229Z,0.30
2023-02-05T20:16:47.211Z,0.30
2023-02-05T20:19:17.611Z,0.20
2023-02-05T20:21:47.164Z,0.27
2023-02-05T20:24:17.520Z,0.27
2023-02-05T20:26:47.968Z,0.40
2023-02-05T20:29:34.466Z,0.40
2023-02-05T20:32:03.191Z,0.30
2023-02-05T20:34:36.274Z,0.20
2023-02-05T20:37:06.577Z,0.30
2023-02-05T20:39:39.841Z,0.30
2023-02-05T20:42:08.608Z,0.10
2023-02-05T20:44:37.449Z,0.20
2023-02-05T20:47:07.432Z,0.20
2023-02-05T20:49:36.571Z,0.30
2023-02-05T20:52:05.230Z,0.30
2023-02-05T20:54:34.626Z,0.30
2023-02-05T20:57:04.690Z,0.20
2023-02-05T20:59:34.537Z,0.30
2023-02-05T21:02:04.057Z,0.40
2023-02-05T21:04:32.719Z,0.20
2023-02-05T21:07:01.278Z,0.20
2023-02-05T21:09:29.726Z,0.30
2023-02-05T21:11:58.238Z,0.33
2023-02-05T21:14:28.532Z,0.27
2023-02-05T21:16:57.032Z,0.30
2023-02-05T21:19:25.932Z,0.50
2023-02-05T21:21:54.331Z,0.20
2023-02-05T21:24:22.809Z,0.40
2023-02-05T21:26:51.584Z,0.50
2023-02-05T21:29:21.792Z,0.83
2023-02-05T21:31:56.141Z,0.90
2023-02-05T21:34:27.001Z,0.60
2023-02-05T21:36:56.461Z,0.60
2023-02-05T21:39:26.961Z,0.40
2023-02-05T21:41:55.650Z,0.70
2023-02-05T21:44:25.460Z,0.90
2023-02-05T21:46:55.451Z,0.83
2023-02-05T21:49:24.541Z,1.07
2023-02-05T21:51:53.927Z,0.80
2023-02-05T21:54:25.867Z,1.27
2023-02-05T21:56:54.527Z,0.70
2023-02-05T21:59:23.862Z,0.70
2023-02-05T22:01:54.437Z,1.07
2023-02-05T22:04:23.605Z,0.70
2023-02-05T22:06:52.750Z,0.50
2023-02-05T22:09:21.538Z,0.50
2023-02-05T22:11:51.424Z,1.10
2023-02-05T22:14:19.932Z,0.90
2023-02-05T22:16:48.427Z,1.20
2023-02-05T22:19:18.388Z,0.60
2023-02-05T22:21:46.904Z,0.90
2023-02-05T22:24:17.057Z,0.70
2023-02-05T22:26:46.469Z,0.50
2023-02-05T22:29:16.446Z,0.70
2023-02-05T22:31:45.615Z,0.57
2023-02-05T22:34:14.290Z,0.93
2023-02-05T22:36:44.224Z,0.40
2023-02-05T22:39:12.976Z,0.53
2023-02-05T22:41:43.476Z,0.40
2023-02-05T22:44:12.925Z,0.30
2023-02-05T22:46:43.487Z,0.20
2023-02-05T22:49:15.577Z,0.20
2023-02-05T22:51:46.165Z,0.30
2023-02-05T22:54:16.183Z,0.20
2023-02-05T22:56:45.094Z,0.30
2023-02-05T22:59:14.451Z,0.20
2023-02-05T23:01:42.889Z,0.20
2023-02-05T23:04:11.918Z,0.20
2023-02-05T23:06:42.859Z,0.27
2023-02-05T23:09:15.952Z,0.30
2023-02-05T23:11:44.691Z,0.30
2023-02-05T23:14:14.759Z,0.20
2023-02-05T23:16:45.693Z,0.10
2023-02-05T23:19:16.379Z,0.30
2023-02-05T23:21:45.423Z,0.20
2023-02-05T23:24:16.128Z,0.20
2023-02-05T23:26:47.321Z,0.17
2023-02-05T23:29:17.153Z,0.20
2023-02-05T23:31:45.908Z,0.30
2023-02-05T23:34:14.836Z,0.20
2023-02-05T23:36:43.389Z,0.20
2023-02-05T23:39:12.081Z,0.20
2023-02-05T23:41:43.105Z,0.10
2023-02-05T23:44:13.984Z,0.20
2023-02-05T23:46:43.954Z,0.10
2023-02-05T23:49:13.273Z,0.23
2023-02-05T23:51:42.697Z,0.20
2023-02-05T23:54:12.535Z,0.20
2023-02-05T23:56:42.613Z,0.20
2023-02-05T23:59:13.614Z,0.20
